sensor_id;sensor_type;location;lat;lon;timestamp;P1;durP1;ratioP1;P2;durP2;ratioP2
75025;SDS011;63591;50.080;8.286;2023-02-01T00:01:31;5.43;;;2.40;;
75025;SDS011;63591;50.080;8.286;2023-02-01T00:03:57;5.33;;;2.20;;
75025;SDS011;63591;50.080;8.286;2023-02-01T00:06:22;4.50;;;2.20;;
75025;SDS011;63591;50.080;8.286;2023-02-01T00:08:47;4.60;;;2.13;;
75025;SDS011;63591;50.080;8.286;2023-02-01T00:11:13;4.53;;;2.22;;
75025;SDS011;63591;50.080;8.286;2023-02-01T00:13:39;4.95;;;1.90;;
75025;SDS011;63591;50.080;8.286;2023-02-01T00:16:10;4.43;;;2.13;;
75025;SDS011;63591;50.080;8.286;2023-02-01T00:18:37;4.25;;;2.15;;
75025;SDS011;63591;50.080;8.286;2023-02-01T00:21:03;4.28;;;2.13;;
75025;SDS011;63591;50.080;8.286;2023-02-01T00:23:31;4.50;;;2.15;;
75025;SDS011;63591;50.080;8.286;2023-02-01T00:26:00;5.53;;;2.20;;
75025;SDS011;63591;50.080;8.286;2023-02-01T00:28:26;5.20;;;2.15;;
75025;SDS011;63591;50.080;8.286;2023-02-01T00:30:55;4.67;;;2.30;;
75025;SDS011;63591;50.080;8.286;2023-02-01T00:33:22;4.50;;;2.30;;
75025;SDS011;63591;50.080;8.286;2023-02-01T00:35:47;5.10;;;2.20;;
75025;SDS011;63591;50.080;8.286;2023-02-01T00:38:13;5.73;;;2.37;;
75025;SDS011;63591;50.080;8.286;2023-02-01T00:40:38;5.50;;;2.13;;
75025;SDS011;63591;50.080;8.286;2023-02-01T00:43:03;5.60;;;2.17;;
75025;SDS011;63591;50.080;8.286;2023-02-01T00:45:28;5.00;;;2.30;;
75025;SDS011;63591;50.080;8.286;2023-02-01T00:47:54;5.00;;;2.00;;
75025;SDS011;63591;50.080;8.286;2023-02-01T00:50:19;4.07;;;2.10;;
75025;SDS011;63591;50.080;8.286;2023-02-01T00:52:44;4.10;;;2.00;;
75025;SDS011;63591;50.080;8.286;2023-02-01T00:55:09;4.80;;;2.40;;
75025;SDS011;63591;50.080;8.286;2023-02-01T00:57:35;4.43;;;2.13;;
75025;SDS011;63591;50.080;8.286;2023-02-01T01:00:00;4.10;;;2.17;;
75025;SDS011;63591;50.080;8.286;2023-02-01T01:02:26;4.43;;;2.03;;
75025;SDS011;63591;50.080;8.286;2023-02-01T01:04:51;4.18;;;2.00;;
75025;SDS011;63591;50.080;8.286;2023-02-01T01:07:16;5.53;;;2.30;;
75025;SDS011;63591;50.080;8.286;2023-02-01T01:09:41;4.93;;;2.23;;
75025;SDS011;63591;50.080;8.286;2023-02-01T01:12:07;4.63;;;2.37;;
75025;SDS011;63591;50.080;8.286;2023-02-01T01:14:32;4.83;;;2.37;;
75025;SDS011;63591;50.080;8.286;2023-02-01T01:16:57;5.07;;;2.33;;
75025;SDS011;63591;50.080;8.286;2023-02-01T01:19:23;4.60;;;2.40;;
75025;SDS011;63591;50.080;8.286;2023-02-01T01:21:48;4.78;;;2.40;;
75025;SDS011;63591;50.080;8.286;2023-02-01T01:24:14;5.23;;;2.30;;
75025;SDS011;63591;50.080;8.286;2023-02-01T01:26:40;4.93;;;2.50;;
75025;SDS011;63591;50.080;8.286;2023-02-01T01:29:05;5.10;;;2.50;;
75025;SDS011;63591;50.080;8.286;2023-02-01T01:31:30;5.00;;;2.60;;
75025;SDS011;63591;50.080;8.286;2023-02-01T01:33:57;5.00;;;2.50;;
75025;SDS011;63591;50.080;8.286;2023-02-01T01:36:24;5.85;;;2.42;;
75025;SDS011;63591;50.080;8.286;2023-02-01T01:38:51;4.82;;;2.55;;
75025;SDS011;63591;50.080;8.286;2023-02-01T01:41:18;5.13;;;2.73;;
75025;SDS011;63591;50.080;8.286;2023-02-01T01:46:16;5.82;;;2.42;;
75025;SDS011;63591;50.080;8.286;2023-02-01T01:48:42;6.93;;;3.05;;
75025;SDS011;63591;50.080;8.286;2023-02-01T01:51:08;6.87;;;2.90;;
75025;SDS011;63591;50.080;8.286;2023-02-01T01:53:44;6.90;;;2.90;;
75025;SDS011;63591;50.080;8.286;2023-02-01T01:56:12;5.38;;;3.03;;
75025;SDS011;63591;50.080;8.286;2023-02-01T01:58:38;6.63;;;2.90;;
75025;SDS011;63591;50.080;8.286;2023-02-01T02:01:04;6.18;;;2.60;;
75025;SDS011;63591;50.080;8.286;2023-02-01T02:06:00;6.68;;;3.03;;
75025;SDS011;63591;50.080;8.286;2023-02-01T02:08:28;5.97;;;3.05;;
75025;SDS011;63591;50.080;8.286;2023-02-01T02:10:54;5.97;;;2.90;;
75025;SDS011;63591;50.080;8.286;2023-02-01T02:13:32;6.45;;;3.08;;
75025;SDS011;63591;50.080;8.286;2023-02-01T02:16:05;6.63;;;3.20;;
75025;SDS011;63591;50.080;8.286;2023-02-01T02:21:31;5.72;;;3.30;;
75025;SDS011;63591;50.080;8.286;2023-02-01T02:27:17;5.28;;;2.83;;
75025;SDS011;63591;50.080;8.286;2023-02-01T02:40:52;5.95;;;3.20;;
75025;SDS011;63591;50.080;8.286;2023-02-01T02:46:37;5.80;;;2.90;;
75025;SDS011;63591;50.080;8.286;2023-02-01T02:49:27;6.25;;;2.92;;
75025;SDS011;63591;50.080;8.286;2023-02-01T02:52:36;6.07;;;3.00;;
75025;SDS011;63591;50.080;8.286;2023-02-01T02:55:26;5.80;;;3.10;;
75025;SDS011;63591;50.080;8.286;2023-02-01T02:57:53;6.05;;;2.97;;
75025;SDS011;63591;50.080;8.286;2023-02-01T03:00:39;6.05;;;3.20;;
75025;SDS011;63591;50.080;8.286;2023-02-01T03:03:24;6.47;;;3.20;;
75025;SDS011;63591;50.080;8.286;2023-02-01T03:06:12;7.00;;;2.95;;
75025;SDS011;63591;50.080;8.286;2023-02-01T03:08:41;5.80;;;2.70;;
75025;SDS011;63591;50.080;8.286;2023-02-01T03:11:10;8.10;;;3.30;;
75025;SDS011;63591;50.080;8.286;2023-02-01T03:13:58;5.97;;;2.92;;
75025;SDS011;63591;50.080;8.286;2023-02-01T03:16:28;7.95;;;3.47;;
75025;SDS011;63591;50.080;8.286;2023-02-01T03:21:29;5.57;;;2.97;;
75025;SDS011;63591;50.080;8.286;2023-02-01T03:24:02;7.10;;;3.40;;
75025;SDS011;63591;50.080;8.286;2023-02-01T03:26:34;6.32;;;2.88;;
75025;SDS011;63591;50.080;8.286;2023-02-01T03:29:11;6.85;;;3.03;;
75025;SDS011;63591;50.080;8.286;2023-02-01T03:31:42;5.50;;;3.03;;
75025;SDS011;63591;50.080;8.286;2023-02-01T03:34:08;5.88;;;3.03;;
75025;SDS011;63591;50.080;8.286;2023-02-01T03:36:36;5.70;;;3.13;;
75025;SDS011;63591;50.080;8.286;2023-02-01T03:44:23;7.25;;;3.50;;
75025;SDS011;63591;50.080;8.286;2023-02-01T03:47:04;8.18;;;3.47;;
75025;SDS011;63591;50.080;8.286;2023-02-01T03:49:36;7.22;;;3.38;;
75025;SDS011;63591;50.080;8.286;2023-02-01T03:52:06;6.78;;;3.30;;
75025;SDS011;63591;50.080;8.286;2023-02-01T03:54:35;6.30;;;3.22;;
75025;SDS011;63591;50.080;8.286;2023-02-01T03:57:02;7.57;;;3.42;;
75025;SDS011;63591;50.080;8.286;2023-02-01T03:59:32;5.72;;;3.00;;
75025;SDS011;63591;50.080;8.286;2023-02-01T04:01:58;6.60;;;3.10;;
75025;SDS011;63591;50.080;8.286;2023-02-01T04:04:23;7.10;;;3.17;;
75025;SDS011;63591;50.080;8.286;2023-02-01T04:06:48;6.93;;;2.93;;
75025;SDS011;63591;50.080;8.286;2023-02-01T04:09:14;6.20;;;3.33;;
75025;SDS011;63591;50.080;8.286;2023-02-01T04:11:40;6.40;;;3.40;;
75025;SDS011;63591;50.080;8.286;2023-02-01T04:14:05;5.73;;;2.93;;
75025;SDS011;63591;50.080;8.286;2023-02-01T04:16:31;5.95;;;3.08;;
75025;SDS011;63591;50.080;8.286;2023-02-01T04:18:57;6.03;;;3.30;;
75025;SDS011;63591;50.080;8.286;2023-02-01T04:21:23;6.10;;;3.13;;
75025;SDS011;63591;50.080;8.286;2023-02-01T04:23:49;6.13;;;2.90;;
75025;SDS011;63591;50.080;8.286;2023-02-01T04:26:15;5.00;;;2.80;;
75025;SDS011;63591;50.080;8.286;2023-02-01T04:28:41;6.05;;;3.00;;
75025;SDS011;63591;50.080;8.286;2023-02-01T04:31:06;6.00;;;2.63;;
75025;SDS011;63591;50.080;8.286;2023-02-01T04:33:31;5.10;;;2.50;;
75025;SDS011;63591;50.080;8.286;2023-02-01T04:35:57;5.67;;;2.80;;
75025;SDS011;63591;50.080;8.286;2023-02-01T04:38:22;5.93;;;2.50;;
75025;SDS011;63591;50.080;8.286;2023-02-01T04:40:48;5.10;;;2.70;;
75025;SDS011;63591;50.080;8.286;2023-02-01T04:43:13;6.38;;;2.83;;
75025;SDS011;63591;50.080;8.286;2023-02-01T04:45:39;6.37;;;2.40;;
75025;SDS011;63591;50.080;8.286;2023-02-01T04:48:04;6.77;;;2.90;;
75025;SDS011;63591;50.080;8.286;2023-02-01T04:50:30;5.60;;;2.42;;
75025;SDS011;63591;50.080;8.286;2023-02-01T04:52:55;4.70;;;2.20;;
75025;SDS011;63591;50.080;8.286;2023-02-01T04:55:20;4.23;;;2.10;;
75025;SDS011;63591;50.080;8.286;2023-02-01T04:57:45;5.23;;;2.30;;
75025;SDS011;63591;50.080;8.286;2023-02-01T05:00:11;4.83;;;2.13;;
75025;SDS011;63591;50.080;8.286;2023-02-01T05:02:38;6.20;;;2.30;;
75025;SDS011;63591;50.080;8.286;2023-02-01T05:05:03;4.90;;;2.10;;
75025;SDS011;63591;50.080;8.286;2023-02-01T05:07:29;6.75;;;2.45;;
75025;SDS011;63591;50.080;8.286;2023-02-01T05:09:54;5.30;;;2.20;;
75025;SDS011;63591;50.080;8.286;2023-02-01T05:12:19;6.43;;;2.40;;
75025;SDS011;63591;50.080;8.286;2023-02-01T05:15:04;5.22;;;2.08;;
75025;SDS011;63591;50.080;8.286;2023-02-01T05:17:29;5.45;;;2.20;;
75025;SDS011;63591;50.080;8.286;2023-02-01T05:19:55;6.40;;;2.20;;
75025;SDS011;63591;50.080;8.286;2023-02-01T05:22:20;6.10;;;2.20;;
75025;SDS011;63591;50.080;8.286;2023-02-01T05:24:45;5.47;;;2.00;;
75025;SDS011;63591;50.080;8.286;2023-02-01T05:27:10;5.05;;;2.00;;
75025;SDS011;63591;50.080;8.286;2023-02-01T05:29:36;6.97;;;2.20;;
75025;SDS011;63591;50.080;8.286;2023-02-01T05:32:01;7.60;;;2.20;;
75025;SDS011;63591;50.080;8.286;2023-02-01T05:34:27;5.40;;;2.03;;
75025;SDS011;63591;50.080;8.286;2023-02-01T05:36:52;5.87;;;1.80;;
75025;SDS011;63591;50.080;8.286;2023-02-01T05:39:18;6.40;;;2.10;;
75025;SDS011;63591;50.080;8.286;2023-02-01T05:41:43;5.90;;;2.00;;
75025;SDS011;63591;50.080;8.286;2023-02-01T05:44:10;6.88;;;2.15;;
75025;SDS011;63591;50.080;8.286;2023-02-01T05:46:36;6.10;;;2.10;;
75025;SDS011;63591;50.080;8.286;2023-02-01T05:49:01;6.68;;;1.92;;
75025;SDS011;63591;50.080;8.286;2023-02-01T05:51:27;5.13;;;2.00;;
75025;SDS011;63591;50.080;8.286;2023-02-01T05:53:58;5.75;;;2.10;;
75025;SDS011;63591;50.080;8.286;2023-02-01T05:56:23;6.13;;;1.80;;
75025;SDS011;63591;50.080;8.286;2023-02-01T05:58:49;6.45;;;1.80;;
75025;SDS011;63591;50.080;8.286;2023-02-01T06:01:14;6.53;;;1.80;;
75025;SDS011;63591;50.080;8.286;2023-02-01T06:03:39;7.20;;;1.93;;
75025;SDS011;63591;50.080;8.286;2023-02-01T06:06:05;7.03;;;2.10;;
75025;SDS011;63591;50.080;8.286;2023-02-01T06:08:30;6.80;;;2.20;;
75025;SDS011;63591;50.080;8.286;2023-02-01T06:11:03;7.25;;;1.92;;
75025;SDS011;63591;50.080;8.286;2023-02-01T06:13:29;5.75;;;1.83;;
75025;SDS011;63591;50.080;8.286;2023-02-01T06:15:55;6.47;;;1.85;;
75025;SDS011;63591;50.080;8.286;2023-02-01T06:18:21;6.07;;;1.80;;
75025;SDS011;63591;50.080;8.286;2023-02-01T06:20:54;5.75;;;2.00;;
75025;SDS011;63591;50.080;8.286;2023-02-01T06:23:20;5.32;;;1.90;;
75025;SDS011;63591;50.080;8.286;2023-02-01T06:25:48;5.43;;;1.77;;
75025;SDS011;63591;50.080;8.286;2023-02-01T06:28:15;5.85;;;1.90;;
75025;SDS011;63591;50.080;8.286;2023-02-01T06:30:40;5.43;;;2.00;;
75025;SDS011;63591;50.080;8.286;2023-02-01T06:33:08;5.85;;;1.80;;
75025;SDS011;63591;50.080;8.286;2023-02-01T06:35:33;6.30;;;2.13;;
75025;SDS011;63591;50.080;8.286;2023-02-01T06:37:58;5.27;;;1.90;;
75025;SDS011;63591;50.080;8.286;2023-02-01T06:40:24;8.77;;;2.25;;
75025;SDS011;63591;50.080;8.286;2023-02-01T06:42:49;7.07;;;1.90;;
75025;SDS011;63591;50.080;8.286;2023-02-01T06:45:15;7.53;;;1.90;;
75025;SDS011;63591;50.080;8.286;2023-02-01T06:47:40;5.63;;;1.73;;
75025;SDS011;63591;50.080;8.286;2023-02-01T06:50:05;6.10;;;1.80;;
75025;SDS011;63591;50.080;8.286;2023-02-01T06:52:31;6.78;;;2.15;;
75025;SDS011;63591;50.080;8.286;2023-02-01T06:54:56;4.93;;;1.80;;
75025;SDS011;63591;50.080;8.286;2023-02-01T06:57:22;9.23;;;2.27;;
75025;SDS011;63591;50.080;8.286;2023-02-01T06:59:47;6.17;;;2.00;;
75025;SDS011;63591;50.080;8.286;2023-02-01T07:02:12;6.80;;;1.93;;
75025;SDS011;63591;50.080;8.286;2023-02-01T07:04:37;5.83;;;2.13;;
75025;SDS011;63591;50.080;8.286;2023-02-01T07:07:03;6.40;;;2.10;;
75025;SDS011;63591;50.080;8.286;2023-02-01T07:09:28;7.47;;;2.17;;
75025;SDS011;63591;50.080;8.286;2023-02-01T07:11:53;7.47;;;2.20;;
75025;SDS011;63591;50.080;8.286;2023-02-01T07:14:19;8.27;;;2.17;;
75025;SDS011;63591;50.080;8.286;2023-02-01T07:16:44;8.97;;;2.50;;
75025;SDS011;63591;50.080;8.286;2023-02-01T07:19:09;7.83;;;2.07;;
75025;SDS011;63591;50.080;8.286;2023-02-01T07:21:35;8.63;;;2.07;;
75025;SDS011;63591;50.080;8.286;2023-02-01T07:24:00;7.03;;;2.20;;
75025;SDS011;63591;50.080;8.286;2023-02-01T07:26:25;8.50;;;2.40;;
75025;SDS011;63591;50.080;8.286;2023-02-01T07:28:51;6.75;;;2.60;;
75025;SDS011;63591;50.080;8.286;2023-02-01T07:31:17;10.05;;;2.45;;
75025;SDS011;63591;50.080;8.286;2023-02-01T07:33:45;8.50;;;2.05;;
75025;SDS011;63591;50.080;8.286;2023-02-01T07:36:12;10.10;;;2.60;;
75025;SDS011;63591;50.080;8.286;2023-02-01T07:38:39;6.82;;;2.00;;
75025;SDS011;63591;50.080;8.286;2023-02-01T07:41:04;7.15;;;2.60;;
75025;SDS011;63591;50.080;8.286;2023-02-01T07:43:30;7.40;;;2.57;;
75025;SDS011;63591;50.080;8.286;2023-02-01T07:45:56;6.50;;;2.30;;
75025;SDS011;63591;50.080;8.286;2023-02-01T07:48:22;7.68;;;2.00;;
75025;SDS011;63591;50.080;8.286;2023-02-01T07:50:56;7.23;;;2.17;;
75025;SDS011;63591;50.080;8.286;2023-02-01T07:53:26;7.55;;;2.15;;
75025;SDS011;63591;50.080;8.286;2023-02-01T07:55:51;11.80;;;2.50;;
75025;SDS011;63591;50.080;8.286;2023-02-01T07:58:17;7.80;;;2.17;;
75025;SDS011;63591;50.080;8.286;2023-02-01T08:00:42;8.07;;;2.30;;
75025;SDS011;63591;50.080;8.286;2023-02-01T08:03:26;6.70;;;2.20;;
75025;SDS011;63591;50.080;8.286;2023-02-01T08:05:55;8.10;;;2.33;;
75025;SDS011;63591;50.080;8.286;2023-02-01T08:08:20;6.47;;;2.40;;
75025;SDS011;63591;50.080;8.286;2023-02-01T08:10:46;9.15;;;2.22;;
75025;SDS011;63591;50.080;8.286;2023-02-01T08:13:12;8.33;;;2.60;;
75025;SDS011;63591;50.080;8.286;2023-02-01T08:15:37;7.87;;;2.33;;
75025;SDS011;63591;50.080;8.286;2023-02-01T08:18:02;8.33;;;2.20;;
75025;SDS011;63591;50.080;8.286;2023-02-01T08:20:28;8.57;;;2.23;;
75025;SDS011;63591;50.080;8.286;2023-02-01T08:22:53;7.27;;;2.23;;
75025;SDS011;63591;50.080;8.286;2023-02-01T08:25:19;9.63;;;2.35;;
75025;SDS011;63591;50.080;8.286;2023-02-01T08:27:44;8.00;;;2.17;;
75025;SDS011;63591;50.080;8.286;2023-02-01T08:30:10;10.00;;;2.28;;
75025;SDS011;63591;50.080;8.286;2023-02-01T08:32:36;9.25;;;2.58;;
75025;SDS011;63591;50.080;8.286;2023-02-01T08:35:02;8.88;;;2.35;;
75025;SDS011;63591;50.080;8.286;2023-02-01T08:37:31;8.10;;;2.50;;
75025;SDS011;63591;50.080;8.286;2023-02-01T08:39:57;8.77;;;2.50;;
75025;SDS011;63591;50.080;8.286;2023-02-01T08:42:22;10.07;;;2.30;;
75025;SDS011;63591;50.080;8.286;2023-02-01T08:45:06;7.35;;;2.17;;
75025;SDS011;63591;50.080;8.286;2023-02-01T08:47:35;6.07;;;2.25;;
75025;SDS011;63591;50.080;8.286;2023-02-01T08:50:00;7.53;;;2.33;;
75025;SDS011;63591;50.080;8.286;2023-02-01T08:52:25;8.65;;;2.20;;
75025;SDS011;63591;50.080;8.286;2023-02-01T08:54:51;5.83;;;2.20;;
75025;SDS011;63591;50.080;8.286;2023-02-01T08:57:16;10.30;;;2.20;;
75025;SDS011;63591;50.080;8.286;2023-02-01T08:59:42;7.10;;;2.13;;
75025;SDS011;63591;50.080;8.286;2023-02-01T09:02:11;8.30;;;2.58;;
75025;SDS011;63591;50.080;8.286;2023-02-01T09:04:37;8.10;;;2.30;;
75025;SDS011;63591;50.080;8.286;2023-02-01T09:07:02;8.00;;;2.10;;
75025;SDS011;63591;50.080;8.286;2023-02-01T09:09:28;8.27;;;2.23;;
75025;SDS011;63591;50.080;8.286;2023-02-01T09:11:53;10.33;;;2.43;;
75025;SDS011;63591;50.080;8.286;2023-02-01T09:14:19;8.30;;;2.30;;
75025;SDS011;63591;50.080;8.286;2023-02-01T09:16:44;6.05;;;2.05;;
75025;SDS011;63591;50.080;8.286;2023-02-01T09:19:09;8.37;;;2.10;;
75025;SDS011;63591;50.080;8.286;2023-02-01T09:21:35;8.43;;;2.73;;
75025;SDS011;63591;50.080;8.286;2023-02-01T09:24:00;6.93;;;2.37;;
75025;SDS011;63591;50.080;8.286;2023-02-01T09:26:26;8.43;;;2.10;;
75025;SDS011;63591;50.080;8.286;2023-02-01T09:28:52;10.47;;;2.33;;
75025;SDS011;63591;50.080;8.286;2023-02-01T09:31:17;7.10;;;1.93;;
75025;SDS011;63591;50.080;8.286;2023-02-01T09:33:43;11.80;;;2.33;;
75025;SDS011;63591;50.080;8.286;2023-02-01T09:36:09;6.37;;;2.07;;
75025;SDS011;63591;50.080;8.286;2023-02-01T09:38:34;7.87;;;2.00;;
75025;SDS011;63591;50.080;8.286;2023-02-01T09:40:59;7.93;;;2.00;;
75025;SDS011;63591;50.080;8.286;2023-02-01T09:43:35;8.40;;;2.22;;
75025;SDS011;63591;50.080;8.286;2023-02-01T09:48:53;7.97;;;2.00;;
75025;SDS011;63591;50.080;8.286;2023-02-01T09:51:22;9.73;;;1.90;;
75025;SDS011;63591;50.080;8.286;2023-02-01T09:53:55;7.07;;;2.10;;
75025;SDS011;63591;50.080;8.286;2023-02-01T09:56:30;6.95;;;1.98;;
75025;SDS011;63591;50.080;8.286;2023-02-01T09:59:08;8.13;;;1.70;;
75025;SDS011;63591;50.080;8.286;2023-02-01T10:01:51;8.05;;;2.00;;
75025;SDS011;63591;50.080;8.286;2023-02-01T10:04:17;9.55;;;2.35;;
75025;SDS011;63591;50.080;8.286;2023-02-01T10:14:36;9.45;;;2.13;;
75025;SDS011;63591;50.080;8.286;2023-02-01T10:22:58;9.05;;;2.10;;
75025;SDS011;63591;50.080;8.286;2023-02-01T10:25:53;8.20;;;2.20;;
75025;SDS011;63591;50.080;8.286;2023-02-01T10:28:20;5.93;;;2.28;;
75025;SDS011;63591;50.080;8.286;2023-02-01T10:30:49;10.17;;;1.83;;
75025;SDS011;63591;50.080;8.286;2023-02-01T10:35:53;8.93;;;2.38;;
75025;SDS011;63591;50.080;8.286;2023-02-01T10:38:30;6.80;;;1.95;;
75025;SDS011;63591;50.080;8.286;2023-02-01T10:41:01;11.38;;;2.50;;
75025;SDS011;63591;50.080;8.286;2023-02-01T10:43:32;7.73;;;2.30;;
75025;SDS011;63591;50.080;8.286;2023-02-01T10:45:58;9.27;;;2.30;;
75025;SDS011;63591;50.080;8.286;2023-02-01T10:48:24;10.70;;;2.10;;
75025;SDS011;63591;50.080;8.286;2023-02-01T10:50:53;6.85;;;2.05;;
75025;SDS011;63591;50.080;8.286;2023-02-01T10:53:24;12.83;;;2.30;;
75025;SDS011;63591;50.080;8.286;2023-02-01T10:55:56;9.20;;;2.08;;
75025;SDS011;63591;50.080;8.286;2023-02-01T10:58:31;9.43;;;2.70;;
75025;SDS011;63591;50.080;8.286;2023-02-01T11:00:58;7.70;;;1.90;;
75025;SDS011;63591;50.080;8.286;2023-02-01T11:08:45;7.35;;;2.00;;
75025;SDS011;63591;50.080;8.286;2023-02-01T11:11:13;10.55;;;2.00;;
75025;SDS011;63591;50.080;8.286;2023-02-01T11:13:39;7.03;;;2.30;;
75025;SDS011;63591;50.080;8.286;2023-02-01T11:16:05;9.68;;;2.10;;
75025;SDS011;63591;50.080;8.286;2023-02-01T11:18:32;8.00;;;2.10;;
75025;SDS011;63591;50.080;8.286;2023-02-01T11:21:01;8.23;;;2.22;;
75025;SDS011;63591;50.080;8.286;2023-02-01T11:23:27;8.75;;;2.45;;
75025;SDS011;63591;50.080;8.286;2023-02-01T11:28:26;8.00;;;2.20;;
75025;SDS011;63591;50.080;8.286;2023-02-01T11:30:56;8.80;;;2.00;;
75025;SDS011;63591;50.080;8.286;2023-02-01T11:33:32;8.40;;;2.10;;
75025;SDS011;63591;50.080;8.286;2023-02-01T11:36:01;7.80;;;2.45;;
75025;SDS011;63591;50.080;8.286;2023-02-01T11:38:33;8.48;;;2.13;;
75025;SDS011;63591;50.080;8.286;2023-02-01T11:41:16;8.43;;;2.00;;
75025;SDS011;63591;50.080;8.286;2023-02-01T11:43:54;8.18;;;2.30;;
75025;SDS011;63591;50.080;8.286;2023-02-01T11:46:19;6.82;;;2.55;;
75025;SDS011;63591;50.080;8.286;2023-02-01T11:48:50;8.55;;;2.00;;
75025;SDS011;63591;50.080;8.286;2023-02-01T11:54:07;11.13;;;2.25;;
75025;SDS011;63591;50.080;8.286;2023-02-01T11:56:59;8.05;;;2.08;;
75025;SDS011;63591;50.080;8.286;2023-02-01T11:59:47;8.27;;;1.98;;
75025;SDS011;63591;50.080;8.286;2023-02-01T12:02:28;9.02;;;1.92;;
75025;SDS011;63591;50.080;8.286;2023-02-01T12:11:03;7.20;;;1.95;;
75025;SDS011;63591;50.080;8.286;2023-02-01T12:16:37;7.97;;;1.90;;
75025;SDS011;63591;50.080;8.286;2023-02-01T12:19:21;7.38;;;1.98;;
75025;SDS011;63591;50.080;8.286;2023-02-01T12:22:04;8.65;;;2.30;;
75025;SDS011;63591;50.080;8.286;2023-02-01T12:24:58;7.13;;;2.20;;
75025;SDS011;63591;50.080;8.286;2023-02-01T12:27:58;7.68;;;2.10;;
75025;SDS011;63591;50.080;8.286;2023-02-01T12:30:44;7.43;;;1.92;;
75025;SDS011;63591;50.080;8.286;2023-02-01T12:33:29;10.30;;;2.00;;
75025;SDS011;63591;50.080;8.286;2023-02-01T12:46:43;8.88;;;1.90;;
75025;SDS011;63591;50.080;8.286;2023-02-01T12:49:27;10.38;;;2.35;;
75025;SDS011;63591;50.080;8.286;2023-02-01T12:52:04;9.68;;;1.80;;
75025;SDS011;63591;50.080;8.286;2023-02-01T12:54:37;9.77;;;2.00;;
75025;SDS011;63591;50.080;8.286;2023-02-01T12:57:16;7.93;;;2.78;;
75025;SDS011;63591;50.080;8.286;2023-02-01T13:02:54;10.35;;;2.47;;
75025;SDS011;63591;50.080;8.286;2023-02-01T13:05:30;10.88;;;2.53;;
75025;SDS011;63591;50.080;8.286;2023-02-01T13:08:11;8.50;;;2.50;;
75025;SDS011;63591;50.080;8.286;2023-02-01T13:10:51;9.95;;;3.10;;
75025;SDS011;63591;50.080;8.286;2023-02-01T13:13:28;16.80;;;4.10;;
75025;SDS011;63591;50.080;8.286;2023-02-01T13:16:12;14.10;;;4.10;;
75025;SDS011;63591;50.080;8.286;2023-02-01T13:18:43;11.73;;;3.67;;
75025;SDS011;63591;50.080;8.286;2023-02-01T13:21:27;14.35;;;4.50;;
75025;SDS011;63591;50.080;8.286;2023-02-01T13:23:57;14.40;;;3.85;;
75025;SDS011;63591;50.080;8.286;2023-02-01T13:26:23;16.77;;;4.57;;
75025;SDS011;63591;50.080;8.286;2023-02-01T13:28:53;15.70;;;4.00;;
75025;SDS011;63591;50.080;8.286;2023-02-01T13:37:10;10.27;;;2.92;;
75025;SDS011;63591;50.080;8.286;2023-02-01T13:39:52;12.18;;;3.40;;
75025;SDS011;63591;50.080;8.286;2023-02-01T13:42:22;9.05;;;2.65;;
75025;SDS011;63591;50.080;8.286;2023-02-01T13:44:56;9.20;;;2.90;;
75025;SDS011;63591;50.080;8.286;2023-02-01T13:47:28;8.88;;;2.50;;
75025;SDS011;63591;50.080;8.286;2023-02-01T13:49:55;8.30;;;2.22;;
75025;SDS011;63591;50.080;8.286;2023-02-01T13:52:25;11.30;;;2.40;;
75025;SDS011;63591;50.080;8.286;2023-02-01T13:57:44;11.02;;;2.53;;
75025;SDS011;63591;50.080;8.286;2023-02-01T14:00:22;9.88;;;2.47;;
75025;SDS011;63591;50.080;8.286;2023-02-01T14:08:02;8.37;;;2.00;;
75025;SDS011;63591;50.080;8.286;2023-02-01T14:34:39;5.75;;;1.55;;
75025;SDS011;63591;50.080;8.286;2023-02-01T14:44:44;8.82;;;1.70;;
75025;SDS011;63591;50.080;8.286;2023-02-01T14:47:10;6.97;;;1.45;;
75025;SDS011;63591;50.080;8.286;2023-02-01T14:50:00;8.13;;;2.03;;
75025;SDS011;63591;50.080;8.286;2023-02-01T14:52:34;7.57;;;1.88;;
75025;SDS011;63591;50.080;8.286;2023-02-01T14:55:15;12.07;;;2.25;;
75025;SDS011;63591;50.080;8.286;2023-02-01T14:57:44;10.20;;;2.00;;
75025;SDS011;63591;50.080;8.286;2023-02-01T15:00:21;8.23;;;2.20;;
75025;SDS011;63591;50.080;8.286;2023-02-01T15:02:49;11.95;;;2.75;;
75025;SDS011;63591;50.080;8.286;2023-02-01T15:05:33;8.90;;;2.17;;
75025;SDS011;63591;50.080;8.286;2023-02-01T15:08:02;9.60;;;2.70;;
75025;SDS011;63591;50.080;8.286;2023-02-01T15:10:32;9.35;;;2.80;;
75025;SDS011;63591;50.080;8.286;2023-02-01T15:13:08;10.82;;;3.22;;
75025;SDS011;63591;50.080;8.286;2023-02-01T15:15:44;10.55;;;2.47;;
75025;SDS011;63591;50.080;8.286;2023-02-01T15:18:14;9.73;;;2.67;;
75025;SDS011;63591;50.080;8.286;2023-02-01T15:20:41;11.57;;;2.78;;
75025;SDS011;63591;50.080;8.286;2023-02-01T15:23:15;9.30;;;2.57;;
75025;SDS011;63591;50.080;8.286;2023-02-01T15:25:44;13.07;;;3.03;;
75025;SDS011;63591;50.080;8.286;2023-02-01T15:28:12;12.52;;;2.88;;
75025;SDS011;63591;50.080;8.286;2023-02-01T15:30:39;10.77;;;2.65;;
75025;SDS011;63591;50.080;8.286;2023-02-01T15:33:13;8.00;;;2.70;;
75025;SDS011;63591;50.080;8.286;2023-02-01T15:35:42;7.95;;;2.45;;
75025;SDS011;63591;50.080;8.286;2023-02-01T15:43:46;9.50;;;2.53;;
75025;SDS011;63591;50.080;8.286;2023-02-01T15:46:39;9.55;;;2.10;;
75025;SDS011;63591;50.080;8.286;2023-02-01T15:51:55;8.30;;;2.15;;
75025;SDS011;63591;50.080;8.286;2023-02-01T15:54:25;7.75;;;1.92;;
75025;SDS011;63591;50.080;8.286;2023-02-01T15:56:55;8.73;;;2.27;;
75025;SDS011;63591;50.080;8.286;2023-02-01T15:59:31;6.30;;;2.05;;
75025;SDS011;63591;50.080;8.286;2023-02-01T16:02:02;8.10;;;2.40;;
75025;SDS011;63591;50.080;8.286;2023-02-01T16:04:29;8.10;;;2.13;;
75025;SDS011;63591;50.080;8.286;2023-02-01T16:06:59;8.77;;;2.45;;
75025;SDS011;63591;50.080;8.286;2023-02-01T16:09:38;9.88;;;2.20;;
75025;SDS011;63591;50.080;8.286;2023-02-01T16:15:22;8.40;;;2.07;;
75025;SDS011;63591;50.080;8.286;2023-02-01T16:17:47;9.68;;;1.98;;
75025;SDS011;63591;50.080;8.286;2023-02-01T16:20:13;8.88;;;2.45;;
75025;SDS011;63591;50.080;8.286;2023-02-01T16:22:38;6.30;;;2.00;;
75025;SDS011;63591;50.080;8.286;2023-02-01T16:25:03;7.93;;;1.97;;
75025;SDS011;63591;50.080;8.286;2023-02-01T16:27:29;9.47;;;2.10;;
75025;SDS011;63591;50.080;8.286;2023-02-01T16:29:54;6.70;;;1.63;;
75025;SDS011;63591;50.080;8.286;2023-02-01T16:32:21;7.63;;;1.98;;
75025;SDS011;63591;50.080;8.286;2023-02-01T16:34:47;8.03;;;2.10;;
75025;SDS011;63591;50.080;8.286;2023-02-01T16:37:15;5.43;;;1.60;;
75025;SDS011;63591;50.080;8.286;2023-02-01T16:39:44;7.10;;;1.92;;
75025;SDS011;63591;50.080;8.286;2023-02-01T16:42:11;8.13;;;1.77;;
75025;SDS011;63591;50.080;8.286;2023-02-01T16:44:37;6.63;;;1.70;;
75025;SDS011;63591;50.080;8.286;2023-02-01T16:47:03;8.60;;;1.80;;
75025;SDS011;63591;50.080;8.286;2023-02-01T16:49:36;8.60;;;1.90;;
75025;SDS011;63591;50.080;8.286;2023-02-01T16:52:02;7.95;;;1.90;;
75025;SDS011;63591;50.080;8.286;2023-02-01T16:54:28;7.13;;;1.75;;
75025;SDS011;63591;50.080;8.286;2023-02-01T16:56:53;9.47;;;1.97;;
75025;SDS011;63591;50.080;8.286;2023-02-01T16:59:19;7.60;;;1.90;;
75025;SDS011;63591;50.080;8.286;2023-02-01T17:01:44;6.77;;;1.90;;
75025;SDS011;63591;50.080;8.286;2023-02-01T17:04:09;8.73;;;2.10;;
75025;SDS011;63591;50.080;8.286;2023-02-01T17:06:36;5.55;;;1.70;;
75025;SDS011;63591;50.080;8.286;2023-02-01T17:09:03;6.05;;;1.52;;
75025;SDS011;63591;50.080;8.286;2023-02-01T17:11:29;7.45;;;1.73;;
75025;SDS011;63591;50.080;8.286;2023-02-01T17:13:56;6.53;;;1.60;;
75025;SDS011;63591;50.080;8.286;2023-02-01T17:16:24;9.95;;;2.17;;
75025;SDS011;63591;50.080;8.286;2023-02-01T17:19:03;10.40;;;2.30;;
75025;SDS011;63591;50.080;8.286;2023-02-01T17:21:34;7.45;;;1.70;;